Time;durP1;ratioP1;P1;durP2;ratioP2;P2;SDS_P1;SDS_P2;PMS_P1;PMS_P2;Temp;Humidity;BMP_temperature;BMP_pressure;BME280_temperature;BME280_humidity;BME280_pressure;Samples;Min_cycle;Max_cycle;Signal;HPM_P1;HPM_P2
2024/01/14 00:00:30;;;;;;;2.97;2.20;;;4.20;99.90;;;;;;5043854;28;20453;-77
2024/01/14 00:02:58;;;;;;;4.40;2.97;;;4.20;99.90;;;;;;5026143;28;20072;-76
2024/01/14 00:05:26;;;;;;;3.00;1.98;;;4.20;99.90;;;;;;5009347;28;20110;-76
2024/01/14 00:07:53;;;;;;;2.72;1.90;;;4.20;99.90;;;;;;5041174;28;20049;-76
2024/01/14 00:10:21;;;;;;;3.97;2.65;;;4.30;99.90;;;;;;5042622;28;20049;-76
2024/01/14 00:12:48;;;;;;;3.35;2.35;;;4.30;99.90;;;;;;5005162;28;20152;-76
2024/01/14 00:15:17;;;;;;;3.60;2.80;;;4.20;99.90;;;;;;5036493;28;20048;-76
2024/01/14 00:17:45;;;;;;;5.05;3.60;;;4.20;99.90;;;;;;5042063;28;20056;-76
2024/01/14 00:20:12;;;;;;;5.22;3.65;;;4.20;99.90;;;;;;5025004;28;20053;-76
2024/01/14 00:22:39;;;;;;;4.88;3.35;;;4.20;99.90;;;;;;5007596;28;20106;-76
2024/01/14 00:25:07;;;;;;;5.03;3.33;;;4.10;99.90;;;;;;5005359;28;20051;-76
2024/01/14 00:27:34;;;;;;;4.10;3.13;;;4.10;99.90;;;;;;5020666;28;20037;-76
2024/01/14 00:30:01;;;;;;;5.10;3.15;;;4.10;99.90;;;;;;5021780;28;20050;-77
2024/01/14 00:32:28;;;;;;;4.40;3.20;;;4.10;99.90;;;;;;5020990;28;20140;-76
2024/01/14 00:34:55;;;;;;;4.82;3.55;;;4.10;99.90;;;;;;5015770;28;20059;-77
2024/01/14 00:37:23;;;;;;;4.47;3.17;;;4.10;99.90;;;;;;5023402;28;20106;-76
2024/01/14 00:39:51;;;;;;;4.18;2.75;;;4.10;99.90;;;;;;5021360;28;20053;-76
2024/01/14 00:42:18;;;;;;;4.15;2.85;;;4.10;99.90;;;;;;5020522;28;20050;-77
2024/01/14 00:44:45;;;;;;;4.10;3.13;;;4.10;99.90;;;;;;5022138;28;20048;-76
2024/01/14 00:47:12;;;;;;;3.95;2.97;;;4.10;99.90;;;;;;5023168;28;20132;-76
2024/01/14 00:49:39;;;;;;;4.43;2.92;;;4.10;99.90;;;;;;5041019;28;20053;-76
2024/01/14 00:52:06;;;;;;;4.35;2.95;;;4.10;99.90;;;;;;5024364;28;20055;-76
2024/01/14 00:54:33;;;;;;;4.50;3.60;;;4.10;99.90;;;;;;5040465;28;20614;-76
2024/01/14 00:57:00;;;;;;;4.13;2.88;;;4.10;99.90;;;;;;5006261;28;20054;-76
2024/01/14 00:59:27;;;;;;;5.38;3.47;;;4.10;99.90;;;;;;5024138;28;20558;-76
2024/01/14 01:01:55;;;;;;;4.50;3.63;;;4.10;99.90;;;;;;5040573;28;20047;-76
2024/01/14 01:04:22;;;;;;;4.97;3.22;;;4.10;99.90;;;;;;5040555;28;20562;-76
2024/01/14 01:06:49;;;;;;;4.82;3.50;;;4.10;99.90;;;;;;5039233;28;20041;-76
2024/01/14 01:09:19;;;;;;;4.95;3.75;;;4.10;99.90;;;;;;5004515;28;20049;-76
2024/01/14 01:11:47;;;;;;;5.32;3.40;;;4.00;99.90;;;;;;5017453;28;20055;-76
2024/01/14 01:14:15;;;;;;;4.25;3.15;;;4.00;99.90;;;;;;5040458;28;20132;-76
2024/01/14 01:16:42;;;;;;;4.97;3.63;;;4.00;99.90;;;;;;5007869;28;20045;-76
2024/01/14 01:19:10;;;;;;;4.45;3.58;;;4.00;99.90;;;;;;5040861;28;20049;-77
2024/01/14 01:21:37;;;;;;;5.57;3.75;;;4.00;99.90;;;;;;5039237;28;20072;-76
2024/01/14 01:24:04;;;;;;;4.75;3.33;;;4.00;99.90;;;;;;5040433;28;20045;-77
2024/01/14 01:26:31;;;;;;;4.00;3.10;;;4.00;99.90;;;;;;5022087;28;20528;-77
2024/01/14 01:28:58;;;;;;;4.07;3.08;;;4.00;99.90;;;;;;5037367;28;20048;-76
2024/01/14 01:31:28;;;;;;;4.47;3.30;;;4.00;99.90;;;;;;5023146;28;20053;-77
2024/01/14 01:34:08;;;;;;;4.28;2.88;;;4.00;99.90;;;;;;5029621;28;20053;-77
2024/01/14 01:36:35;;;;;;;4.50;2.92;;;4.10;99.90;;;;;;5021879;28;20124;-77
2024/01/14 01:39:03;;;;;;;4.25;3.15;;;4.10;99.90;;;;;;5024165;28;20684;-77
2024/01/14 01:41:30;;;;;;;4.18;2.88;;;4.10;99.90;;;;;;5023269;28;20049;-77
2024/01/14 01:43:57;;;;;;;4.60;3.30;;;4.00;99.90;;;;;;5039890;28;20052;-77
2024/01/14 01:46:23;;;;;;;4.55;3.25;;;4.10;99.90;;;;;;5006970;28;20053;-77
2024/01/14 01:48:50;;;;;;;3.63;2.85;;;4.10;99.90;;;;;;5024019;28;20433;-77
2024/01/14 01:51:17;;;;;;;5.05;3.97;;;4.00;99.90;;;;;;5023126;28;20156;-77
2024/01/14 01:53:44;;;;;;;5.57;4.05;;;4.00;99.90;;;;;;5023688;28;20150;-77
2024/01/14 01:56:11;;;;;;;4.43;3.20;;;4.00;99.90;;;;;;5022803;28;20065;-77
2024/01/14 01:58:38;;;;;;;4.32;3.40;;;3.90;99.90;;;;;;5027432;28;20383;-77
2024/01/14 02:01:05;;;;;;;5.28;3.28;;;3.90;99.90;;;;;;5028260;28;20056;-77
2024/01/14 02:03:33;;;;;;;4.70;3.13;;;3.90;99.90;;;;;;5028414;28;20053;-77
2024/01/14 02:06:00;;;;;;;4.47;3.10;;;3.90;99.90;;;;;;5007106;28;20510;-77
2024/01/14 02:08:27;;;;;;;4.80;3.50;;;3.90;99.90;;;;;;5037769;28;20135;-77
2024/01/14 02:10:54;;;;;;;5.28;3.67;;;3.90;99.90;;;;;;5023541;28;20104;-77
2024/01/14 02:13:21;;;;;;;4.28;3.22;;;3.90;99.90;;;;;;5024271;28;20053;-77
2024/01/14 02:15:48;;;;;;;4.45;3.25;;;3.90;99.90;;;;;;5010284;28;20341;-76
2024/01/14 02:18:15;;;;;;;4.78;3.05;;;3.90;99.90;;;;;;5043636;28;20439;-76
2024/01/14 02:20:43;;;;;;;4.43;3.00;;;3.90;99.90;;;;;;5043076;28;20053;-77
2024/01/14 02:23:10;;;;;;;4.30;3.10;;;3.90;99.90;;;;;;5027184;28;20057;-77
2024/01/14 02:25:37;;;;;;;4.60;3.35;;;3.90;99.90;;;;;;5043270;28;20479;-77
2024/01/14 02:28:04;;;;;;;5.07;3.45;;;3.90;99.90;;;;;;5025268;28;20106;-77
2024/01/14 02:30:32;;;;;;;4.85;3.65;;;3.90;99.90;;;;;;5009841;28;20107;-76
2024/01/14 02:32:59;;;;;;;4.95;3.53;;;3.90;99.90;;;;;;5009357;28;20045;-76
2024/01/14 02:35:26;;;;;;;3.75;2.75;;;3.90;99.90;;;;;;5025204;28;20045;-76
2024/01/14 02:37:54;;;;;;;4.25;3.30;;;3.90;99.90;;;;;;5023708;28;20359;-76
2024/01/14 02:40:21;;;;;;;4.60;3.45;;;3.90;99.90;;;;;;5025991;28;20045;-76
2024/01/14 02:42:48;;;;;;;4.82;3.30;;;3.90;99.90;;;;;;5044699;28;20441;-79
2024/01/14 02:45:16;;;;;;;4.45;3.10;;;3.90;99.90;;;;;;5029029;28;20483;-76
2024/01/14 02:47:44;;;;;;;4.15;3.35;;;3.90;99.90;;;;;;5044917;28;20350;-76
2024/01/14 02:50:11;;;;;;;3.38;2.58;;;3.90;99.90;;;;;;5045566;28;20084;-76
2024/01/14 02:52:38;;;;;;;5.38;3.30;;;3.90;99.90;;;;;;5044142;28;20049;-76
2024/01/14 02:55:05;;;;;;;3.92;2.88;;;3.90;99.90;;;;;;5045124;28;20071;-76
2024/01/14 02:57:33;;;;;;;3.83;2.55;;;3.90;99.90;;;;;;5028187;28;20468;-76
2024/01/14 02:59:59;;;;;;;4.00;2.63;;;3.90;99.90;;;;;;5028127;28;20049;-76
2024/01/14 03:02:27;;;;;;;2.92;2.58;;;3.90;99.90;;;;;;5046469;28;20049;-77
2024/01/14 03:04:54;;;;;;;4.07;2.90;;;3.90;99.90;;;;;;5028274;28;20076;-75
2024/01/14 03:07:21;;;;;;;4.75;3.42;;;4.00;99.90;;;;;;5043985;28;20044;-76
2024/01/14 03:09:47;;;;;;;3.85;2.90;;;4.00;99.90;;;;;;5007283;28;20053;-76
2024/01/14 03:12:14;;;;;;;5.10;3.92;;;4.00;99.90;;;;;;5041979;28;20411;-76
2024/01/14 03:14:41;;;;;;;3.60;2.70;;;4.00;99.90;;;;;;5027270;28;20505;-76
2024/01/14 03:17:08;;;;;;;4.15;3.22;;;4.00;99.90;;;;;;5011804;28;20547;-76
2024/01/14 03:19:35;;;;;;;3.20;2.70;;;4.00;99.90;;;;;;5026625;28;20041;-76
2024/01/14 03:22:02;;;;;;;5.05;3.65;;;4.00;99.90;;;;;;5044622;28;20047;-76
2024/01/14 03:24:29;;;;;;;3.65;2.60;;;4.00;99.90;;;;;;5044404;28;20072;-76
2024/01/14 03:26:56;;;;;;;4.47;3.05;;;4.00;99.90;;;;;;5043168;28;20493;-76
2024/01/14 03:29:23;;;;;;;4.38;3.30;;;4.00;99.90;;;;;;5044466;28;20044;-76
2024/01/14 03:31:50;;;;;;;2.83;2.17;;;4.00;99.90;;;;;;5033811;28;20147;-77
2024/01/14 03:34:17;;;;;;;4.68;3.30;;;4.00;99.90;;;;;;5043840;28;20067;-77
2024/01/14 03:36:44;;;;;;;4.18;2.72;;;4.00;99.90;;;;;;5043467;28;20567;-77
2024/01/14 03:39:11;;;;;;;4.18;3.03;;;4.10;99.90;;;;;;5041977;28;20789;-77
2024/01/14 03:41:38;;;;;;;5.72;3.97;;;4.00;99.90;;;;;;5036620;28;20058;-77
2024/01/14 03:44:05;;;;;;;5.03;3.60;;;4.00;99.90;;;;;;5023229;28;20084;-77
2024/01/14 03:46:32;;;;;;;5.45;3.88;;;4.00;99.90;;;;;;5021829;28;20097;-77
2024/01/14 03:48:59;;;;;;;4.55;3.35;;;3.90;99.90;;;;;;5023322;28;20136;-77
2024/01/14 03:51:26;;;;;;;5.40;4.10;;;4.00;99.90;;;;;;5041018;28;20052;-77
2024/01/14 03:53:53;;;;;;;6.13;4.68;;;3.90;99.90;;;;;;5020412;28;20049;-77
2024/01/14 03:56:20;;;;;;;6.10;4.18;;;3.90;99.90;;;;;;5005529;28;20162;-77
2024/01/14 03:58:47;;;;;;;5.47;4.07;;;3.90;99.90;;;;;;5018895;28;20045;-77
2024/01/14 04:01:17;;;;;;;5.38;3.80;;;3.90;99.90;;;;;;5030195;28;20048;-78
2024/01/14 04:03:44;;;;;;;4.38;3.10;;;3.90;99.90;;;;;;5010864;28;20048;-77
2024/01/14 04:06:12;;;;;;;4.53;3.20;;;3.90;99.90;;;;;;5009906;28;20124;-77
2024/01/14 04:08:39;;;;;;;4.72;3.42;;;3.90;99.90;;;;;;5043335;28;20059;-78
2024/01/14 04:11:06;;;;;;;3.80;2.75;;;4.00;99.90;;;;;;5043237;28;20285;-77
2024/01/14 04:13:32;;;;;;;4.35;2.80;;;4.00;99.90;;;;;;5043027;28;20122;-78
2024/01/14 04:16:00;;;;;;;3.72;2.50;;;4.00;99.90;;;;;;5043046;28;20085;-78
2024/01/14 04:18:29;;;;;;;4.13;2.97;;;4.10;99.90;;;;;;5020055;28;20056;-78
2024/01/14 04:20:56;;;;;;;4.40;3.20;;;4.10;99.90;;;;;;5026693;28;20048;-77
2024/01/14 04:23:24;;;;;;;3.60;2.78;;;4.00;99.90;;;;;;5010447;28;20049;-77
2024/01/14 04:25:51;;;;;;;5.68;4.20;;;4.00;99.90;;;;;;5010303;28;20056;-78
2024/01/14 04:28:18;;;;;;;5.75;3.85;;;4.00;99.90;;;;;;5042256;28;20251;-78
2024/01/14 04:30:45;;;;;;;5.18;3.15;;;4.00;99.90;;;;;;5043387;28;20060;-78
2024/01/14 04:33:12;;;;;;;5.38;3.50;;;4.00;1.00;;;;;;5043330;28;20175;-77
2024/01/14 04:35:39;;;;;;;4.07;3.15;;;4.00;1.00;;;;;;5042736;28;20236;-78
2024/01/14 04:38:06;;;;;;;4.20;3.53;;;4.00;1.00;;;;;;5026364;28;20106;-77
2024/01/14 04:40:34;;;;;;;5.03;3.55;;;4.00;1.00;;;;;;5026055;28;20204;-78
2024/01/14 04:43:00;;;;;;;4.45;3.20;;;4.00;1.00;;;;;;5044280;28;20361;-78
2024/01/14 04:45:27;;;;;;;4.50;3.08;;;4.00;1.00;;;;;;5010169;28;20049;-78
2024/01/14 04:47:54;;;;;;;4.32;2.90;;;3.90;1.00;;;;;;5026296;28;20053;-78
2024/01/14 04:50:22;;;;;;;4.43;3.10;;;4.00;1.00;;;;;;5026174;28;20075;-78
2024/01/14 04:52:49;;;;;;;5.07;3.10;;;4.00;1.00;;;;;;5009627;28;20080;-77
2024/01/14 04:55:16;;;;;;;3.75;2.75;;;4.00;1.00;;;;;;5009736;28;20053;-78
2024/01/14 04:57:43;;;;;;;4.18;2.95;;;4.00;1.00;;;;;;5043830;28;20114;-78
2024/01/14 05:00:12;;;;;;;4.13;2.70;;;4.00;1.00;;;;;;5025861;28;20057;-78
2024/01/14 05:02:39;;;;;;;4.03;2.63;;;4.00;1.00;;;;;;5026677;28;20049;-77
2024/01/14 05:05:06;;;;;;;4.50;2.53;;;4.00;1.00;;;;;;5042804;28;20102;-77
2024/01/14 05:07:33;;;;;;;4.53;2.33;;;4.00;1.00;;;;;;5024966;28;20053;-77
2024/01/14 05:10:00;;;;;;;4.32;3.13;;;4.00;1.00;;;;;;5043632;28;20422;-77
2024/01/14 05:12:27;;;;;;;3.80;2.58;;;4.00;1.00;;;;;;5022572;28;20103;-77
2024/01/14 05:14:55;;;;;;;3.63;2.75;;;4.00;1.00;;;;;;5009160;28;20171;-76
2024/01/14 05:17:22;;;;;;;3.97;2.58;;;4.00;19.40;;;;;;5026164;28;20049;-76
2024/01/14 05:19:48;;;;;;;4.00;2.70;;;4.00;14.40;;;;;;5026577;28;20049;-76
2024/01/14 05:22:15;;;;;;;3.10;2.33;;;4.00;10.90;;;;;;5021416;28;20439;-76
2024/01/14 05:24:43;;;;;;;3.33;2.08;;;4.00;12.00;;;;;;5009027;28;20053;-76
2024/01/14 05:27:13;;;;;;;4.00;2.40;;;4.10;1.00;;;;;;5025332;28;20527;-76
2024/01/14 05:29:43;;;;;;;4.80;2.97;;;4.10;1.00;;;;;;5009704;28;20076;-76
2024/01/14 05:32:12;;;;;;;4.70;2.97;;;4.00;1.00;;;;;;5025721;28;20090;-76
2024/01/14 05:34:40;;;;;;;3.22;2.30;;;4.00;2.30;;;;;;5022093;28;20065;-76
2024/01/14 05:37:07;;;;;;;3.78;2.53;;;3.90;12.80;;;;;;5041102;28;20059;-77
2024/01/14 05:39:35;;;;;;;4.53;2.80;;;3.90;50.50;;;;;;5042428;28;20044;-77
2024/01/14 05:42:01;;;;;;;3.90;3.05;;;3.90;90.70;;;;;;5041376;28;20044;-76
2024/01/14 05:44:28;;;;;;;4.20;2.75;;;3.90;99.90;;;;;;5009193;28;20053;-76
2024/01/14 05:46:56;;;;;;;4.40;3.08;;;3.90;99.90;;;;;;5025703;28;20073;-76
2024/01/14 05:49:23;;;;;;;3.78;2.53;;;3.80;99.90;;;;;;5009056;28;20483;-76
2024/01/14 05:51:50;;;;;;;4.75;3.55;;;3.80;99.90;;;;;;5024716;28;20211;-76
2024/01/14 05:54:17;;;;;;;4.63;3.00;;;3.80;99.90;;;;;;5021506;28;20109;-77
2024/01/14 05:56:44;;;;;;;4.93;2.97;;;3.90;99.90;;;;;;5021749;28;20136;-76
2024/01/14 05:59:11;;;;;;;3.97;2.95;;;3.90;99.90;;;;;;5027161;28;20061;-76
2024/01/14 06:01:38;;;;;;;4.20;2.83;;;3.90;99.90;;;;;;5005571;28;20414;-77
2024/01/14 06:04:05;;;;;;;3.67;2.45;;;3.90;99.90;;;;;;5023480;28;20060;-77
2024/01/14 06:06:33;;;;;;;3.35;2.40;;;4.00;99.90;;;;;;5006404;28;20130;-76
2024/01/14 06:09:00;;;;;;;3.50;2.53;;;4.00;99.90;;;;;;5039822;28;20128;-76
2024/01/14 06:11:28;;;;;;;4.53;3.15;;;4.00;99.90;;;;;;5039675;28;20049;-76
2024/01/14 06:13:55;;;;;;;5.68;4.30;;;4.00;99.90;;;;;;5039597;28;20120;-76
2024/01/14 06:16:22;;;;;;;6.82;4.35;;;3.90;99.90;;;;;;5039760;28;20049;-77
2024/01/14 06:18:49;;;;;;;6.28;4.22;;;3.90;99.90;;;;;;5007365;28;20526;-77
2024/01/14 06:21:16;;;;;;;6.43;4.38;;;3.90;99.90;;;;;;5003501;28;20556;-78
2024/01/14 06:23:43;;;;;;;6.55;4.57;;;3.90;99.90;;;;;;5018325;28;20052;-77
2024/01/14 06:26:19;;;;;;;6.22;4.25;;;3.80;99.90;;;;;;5007288;28;20359;-77
2024/01/14 06:28:46;;;;;;;5.53;3.97;;;3.90;1.00;;;;;;5023497;28;20052;-76
2024/01/14 06:31:17;;;;;;;6.43;4.50;;;3.90;1.00;;;;;;5039588;28;20592;-76
2024/01/14 06:33:45;;;;;;;4.85;3.67;;;3.90;1.00;;;;;;5039492;28;20132;-77
2024/01/14 06:36:12;;;;;;;5.90;3.97;;;3.90;1.00;;;;;;5022547;28;20071;-77
2024/01/14 06:38:39;;;;;;;6.00;3.80;;;3.90;1.00;;;;;;5023354;28;20060;-76
2024/01/14 06:41:06;;;;;;;5.68;3.67;;;3.90;1.00;;;;;;5022996;28;20057;-77
2024/01/14 06:43:37;;;;;;;6.32;4.32;;;3.90;1.00;;;;;;5040190;28;20660;-76
2024/01/14 06:46:04;;;;;;;6.32;4.05;;;3.90;1.00;;;;;;5043318;28;20071;-76
2024/01/14 06:48:31;;;;;;;5.90;3.83;;;3.90;1.00;;;;;;5007229;28;20053;-76
2024/01/14 06:50:58;;;;;;;7.38;4.78;;;3.90;1.00;;;;;;5025948;28;20111;-76
2024/01/14 06:53:25;;;;;;;6.45;4.43;;;3.90;1.00;;;;;;5026789;28;20048;-78
2024/01/14 06:55:52;;;;;;;6.63;3.97;;;3.90;1.00;;;;;;5042491;28;20051;-78
2024/01/14 06:58:19;;;;;;;6.88;4.32;;;4.00;1.00;;;;;;5023365;28;20053;-77
2024/01/14 07:00:46;;;;;;;7.50;3.72;;;4.00;1.00;;;;;;5026004;28;20102;-76
2024/01/14 07:03:13;;;;;;;5.07;3.85;;;4.00;1.00;;;;;;5008543;28;20048;-77
2024/01/14 07:05:40;;;;;;;6.10;4.60;;;4.00;1.00;;;;;;5041781;28;20053;-76
2024/01/14 07:08:07;;;;;;;6.88;4.47;;;4.00;1.00;;;;;;5043339;28;20048;-76
2024/01/14 07:10:35;;;;;;;6.00;4.43;;;4.00;1.00;;;;;;5009946;28;20049;-77
2024/01/14 07:13:03;;;;;;;5.30;3.63;;;4.00;1.00;;;;;;5042629;28;20048;-76
2024/01/14 07:15:30;;;;;;;6.57;4.28;;;4.00;1.00;;;;;;5042667;28;20490;-76
2024/01/14 07:17:57;;;;;;;5.35;3.65;;;4.00;1.00;;;;;;5026367;28;20057;-76
2024/01/14 07:20:26;;;;;;;5.50;3.88;;;4.00;1.00;;;;;;5027090;28;20141;-76
2024/01/14 07:22:53;;;;;;;5.28;3.38;;;4.00;1.00;;;;;;5025258;28;20057;-77
2024/01/14 07:25:40;;;;;;;5.47;3.72;;;4.00;1.00;;;;;;5015492;28;20049;-77
2024/01/14 07:28:07;;;;;;;5.85;3.80;;;4.10;1.00;;;;;;5025493;28;20045;-77
2024/01/14 07:30:34;;;;;;;6.85;4.20;;;4.10;1.00;;;;;;5026498;28;20099;-78
2024/01/14 07:33:01;;;;;;;4.90;3.30;;;4.00;1.00;;;;;;5009399;28;20221;-76
2024/01/14 07:35:28;;;;;;;5.78;4.13;;;4.10;1.00;;;;;;5022211;28;20045;-76
2024/01/14 07:37:55;;;;;;;5.47;3.50;;;4.10;1.00;;;;;;5022756;28;20095;-76
2024/01/14 07:40:22;;;;;;;5.55;3.80;;;4.10;1.00;;;;;;5030898;28;20037;-76
2024/01/14 07:42:49;;;;;;;5.68;3.78;;;4.10;1.00;;;;;;5025509;28;20059;-77
2024/01/14 07:45:17;;;;;;;4.65;3.40;;;4.10;99.90;;;;;;5025851;28;20494;-77
2024/01/14 07:47:44;;;;;;;4.53;3.20;;;4.10;1.00;;;;;;5043580;28;20434;-77
2024/01/14 07:50:11;;;;;;;4.85;2.85;;;4.00;1.00;;;;;;5024226;28;20115;-77
2024/01/14 07:52:38;;;;;;;5.07;3.67;;;4.00;1.00;;;;;;5041712;28;20051;-77
2024/01/14 07:55:05;;;;;;;6.30;3.15;;;4.00;1.00;;;;;;5021944;28;20042;-77
2024/01/14 07:57:33;;;;;;;5.75;3.67;;;4.00;1.00;;;;;;4993106;28;20056;-77
2024/01/14 08:00:00;;;;;;;5.63;3.90;;;4.00;1.00;;;;;;5009147;28;20041;-77
2024/01/14 08:02:27;;;;;;;5.10;3.80;;;4.00;1.00;;;;;;5024637;28;20053;-77
2024/01/14 08:04:54;;;;;;;5.78;3.60;;;4.00;1.00;;;;;;5025412;28;20056;-78
2024/01/14 08:07:21;;;;;;;6.35;4.15;;;4.00;1.00;;;;;;5040848;28;20064;-77
2024/01/14 08:09:48;;;;;;;4.70;3.35;;;4.00;1.00;;;;;;5042727;28;20153;-77
2024/01/14 08:12:15;;;;;;;5.20;3.13;;;4.00;1.00;;;;;;5041403;28;20506;-77
2024/01/14 08:14:42;;;;;;;7.38;4.97;;;4.00;1.00;;;;;;5025065;28;20426;-77
2024/01/14 08:17:09;;;;;;;6.10;4.32;;;4.00;1.00;;;;;;5024040;28;20072;-77
2024/01/14 08:19:36;;;;;;;6.28;4.00;;;4.00;1.00;;;;;;5024672;28;20144;-77
2024/01/14 08:22:04;;;;;;;6.05;4.22;;;4.00;1.00;;;;;;5040954;28;20060;-77
2024/01/14 08:24:33;;;;;;;4.40;3.28;;;4.00;1.00;;;;;;5022407;28;20051;-78
2024/01/14 08:27:01;;;;;;;5.63;3.10;;;4.00;1.00;;;;;;5024215;28;20048;-77
2024/01/14 08:29:28;;;;;;;4.95;3.28;;;4.00;99.90;;;;;;5021008;28;20148;-76
2024/01/14 08:31:54;;;;;;;5.20;3.25;;;4.10;1.00;;;;;;5039809;28;20049;-76
2024/01/14 08:34:21;;;;;;;4.05;2.75;;;4.10;1.00;;;;;;5023157;28;20045;-76
2024/01/14 08:36:49;;;;;;;4.88;3.28;;;4.10;99.90;;;;;;5020074;28;20129;-76
2024/01/14 08:39:16;;;;;;;3.85;2.88;;;4.10;99.90;;;;;;5039223;28;20052;-76
2024/01/14 08:41:44;;;;;;;4.88;3.10;;;4.10;99.90;;;;;;5019930;28;20458;-76
2024/01/14 08:44:11;;;;;;;5.53;3.15;;;4.10;99.90;;;;;;5019951;28;20052;-75
2024/01/14 08:46:41;;;;;;;4.30;2.92;;;4.10;99.90;;;;;;5041106;28;20462;-75
2024/01/14 08:49:09;;;;;;;4.18;3.10;;;4.10;99.90;;;;;;5023124;28;20049;-75
2024/01/14 08:51:39;;;;;;;4.13;2.60;;;4.20;99.90;;;;;;5039903;28;20137;-76
2024/01/14 08:54:06;;;;;;;4.30;2.92;;;4.20;99.90;;;;;;5022267;28;20048;-76
2024/01/14 08:56:36;;;;;;;5.10;3.17;;;4.20;99.90;;;;;;5024234;28;20056;-76
2024/01/14 08:59:03;;;;;;;4.50;2.67;;;4.20;10.40;;;;;;5039282;28;20529;-76
2024/01/14 09:01:31;;;;;;;3.42;2.50;;;4.30;46.00;;;;;;5040419;28;20049;-76
2024/01/14 09:03:58;;;;;;;4.70;3.17;;;4.30;1.00;;;;;;5040362;28;20045;-76
2024/01/14 09:06:26;;;;;;;3.47;2.65;;;4.30;1.00;;;;;;5038850;28;20091;-76
2024/01/14 09:08:53;;;;;;;4.40;3.08;;;4.40;1.00;;;;;;5024187;28;20295;-75
2024/01/14 09:11:20;;;;;;;3.15;2.45;;;4.40;1.00;;;;;;5039984;28;20045;-75
2024/01/14 09:13:47;;;;;;;3.88;2.60;;;4.40;1.00;;;;;;5039946;28;20072;-75
2024/01/14 09:16:14;;;;;;;4.25;2.75;;;4.40;1.00;;;;;;5022905;28;20446;-77
2024/01/14 09:18:41;;;;;;;4.40;3.03;;;4.40;99.90;;;;;;5038930;28;20072;-77
2024/01/14 09:21:08;;;;;;;5.03;3.50;;;4.40;99.90;;;;;;5040527;28;20393;-78
2024/01/14 09:23:36;;;;;;;6.63;3.47;;;4.40;99.90;;;;;;5023185;28;20059;-78
2024/01/14 09:26:04;;;;;;;4.10;2.58;;;4.40;99.90;;;;;;5039674;28;20048;-78
2024/01/14 09:28:33;;;;;;;3.95;2.70;;;4.50;99.90;;;;;;5030074;28;20073;-78
2024/01/14 09:31:00;;;;;;;3.90;2.33;;;4.50;99.90;;;;;;5040151;28;20045;-78
2024/01/14 09:33:27;;;;;;;4.55;3.00;;;4.50;99.90;;;;;;5040323;28;20110;-78
2024/01/14 09:35:55;;;;;;;4.25;2.85;;;4.60;99.90;;;;;;5023420;28;20490;-78
2024/01/14 09:38:22;;;;;;;4.15;2.63;;;4.60;99.90;;;;;;5023759;28;20076;-78
2024/01/14 09:40:57;;;;;;;4.25;2.90;;;4.70;99.90;;;;;;5019869;28;20399;-75
2024/01/14 09:43:23;;;;;;;3.28;2.17;;;4.80;99.90;;;;;;5035015;28;20095;-75
2024/01/14 09:45:50;;;;;;;3.60;2.58;;;4.80;99.90;;;;;;5040928;28;20052;-78
2024/01/14 09:48:18;;;;;;;4.18;2.78;;;4.90;99.90;;;;;;5011192;28;20052;-78
2024/01/14 09:50:46;;;;;;;4.47;3.00;;;4.90;99.90;;;;;;5026764;28;20415;-78
2024/01/14 09:53:14;;;;;;;4.97;3.13;;;4.90;99.90;;;;;;5042675;28;20080;-75
2024/01/14 09:55:41;;;;;;;4.00;2.72;;;5.00;99.90;;;;;;5010076;28;20057;-75
2024/01/14 09:58:08;;;;;;;4.30;2.53;;;5.10;99.90;;;;;;5026052;28;20052;-77
2024/01/14 10:00:36;;;;;;;5.18;3.63;;;5.10;99.90;;;;;;5042266;28;20065;-75
2024/01/14 10:03:04;;;;;;;5.43;3.60;;;5.10;99.90;;;;;;5024557;28;20691;-76
2024/01/14 10:05:33;;;;;;;4.35;2.88;;;5.10;99.90;;;;;;5042565;28;20052;-77
2024/01/14 10:08:00;;;;;;;5.25;3.40;;;5.10;99.90;;;;;;5026404;28;20053;-77
2024/01/14 10:10:28;;;;;;;5.70;3.80;;;5.10;99.90;;;;;;5042461;28;20052;-77
2024/01/14 10:12:55;;;;;;;5.50;3.70;;;5.20;99.90;;;;;;5005968;28;20069;-77
2024/01/14 10:15:22;;;;;;;4.65;3.03;;;5.20;99.90;;;;;;5041710;28;20065;-76
2024/01/14 10:17:49;;;;;;;4.30;3.03;;;5.30;97.00;;;;;;5042432;28;20426;-76
2024/01/14 10:20:20;;;;;;;5.10;3.28;;;5.30;95.90;;;;;;5044404;28;20044;-75
2024/01/14 10:22:46;;;;;;;4.30;3.05;;;5.30;92.20;;;;;;5011606;28;20052;-76
2024/01/14 10:25:14;;;;;;;4.20;3.00;;;5.40;88.80;;;;;;5009879;28;20048;-78
2024/01/14 10:27:41;;;;;;;4.45;3.05;;;5.40;68.60;;;;;;5026550;28;20048;-75
2024/01/14 10:30:10;;;;;;;3.72;2.58;;;5.40;75.30;;;;;;5044961;28;20156;-76
2024/01/14 10:32:39;;;;;;;3.75;2.97;;;5.50;81.10;;;;;;5045949;28;20057;-76
2024/01/14 10:35:27;;;;;;;3.72;3.00;;;5.50;69.80;;;;;;5032461;28;20056;-76
2024/01/14 10:37:55;;;;;;;3.95;3.05;;;5.60;67.80;;;;;;5028423;28;20049;-76
2024/01/14 10:40:22;;;;;;;4.30;3.60;;;5.50;69.40;;;;;;5030236;28;20118;-75
2024/01/14 10:42:49;;;;;;;4.13;2.80;;;5.50;63.60;;;;;;5013988;28;20098;-75
2024/01/14 10:45:17;;;;;;;4.70;3.50;;;5.60;65.30;;;;;;5026892;28;20045;-75
2024/01/14 10:47:46;;;;;;;4.00;2.85;;;5.60;68.60;;;;;;5024520;28;20094;-76
2024/01/14 10:50:17;;;;;;;5.45;3.50;;;5.60;53.60;;;;;;5025564;28;20056;-74
2024/01/14 10:52:48;;;;;;;5.00;3.20;;;5.60;55.50;;;;;;5026912;28;20045;-74
2024/01/14 10:55:37;;;;;;;4.30;3.03;;;5.60;47.90;;;;;;5027740;28;20136;-74
2024/01/14 10:58:04;;;;;;;5.55;3.38;;;5.70;51.60;;;;;;5029299;28;20079;-74
2024/01/14 11:01:01;;;;;;;4.30;3.10;;;5.70;44.40;;;;;;5045608;28;20045;-74
2024/01/14 11:03:29;;;;;;;3.80;2.70;;;5.70;46.00;;;;;;5044441;28;20041;-75
2024/01/14 11:05:56;;;;;;;3.90;2.78;;;5.70;45.90;;;;;;5028631;28;20068;-75
2024/01/14 11:08:23;;;;;;;4.38;3.22;;;5.70;45.90;;;;;;5029323;28;20063;-74
2024/01/14 11:10:51;;;;;;;4.75;3.13;;;5.70;60.50;;;;;;5022281;28;20079;-75
2024/01/14 11:13:36;;;;;;;3.80;2.58;;;5.80;54.50;;;;;;5024477;28;20136;-74
2024/01/14 11:16:21;;;;;;;3.20;2.50;;;5.70;59.70;;;;;;5036354;28;20068;-74
2024/01/14 11:18:59;;;;;;;4.30;2.70;;;5.70;56.00;;;;;;5046044;28;20049;-75
2024/01/14 11:21:39;;;;;;;5.68;3.50;;;5.80;55.90;;;;;;5028980;28;20055;-74
2024/01/14 11:24:26;;;;;;;4.45;3.17;;;5.80;57.80;;;;;;5045807;28;20053;-74
2024/01/14 11:26:57;;;;;;;3.95;2.50;;;5.90;39.60;;;;;;5049200;28;20052;-76
2024/01/14 11:29:36;;;;;;;4.72;3.47;;;5.90;52.50;;;;;;5013050;28;20438;-75
2024/01/14 11:32:03;;;;;;;5.07;3.92;;;5.90;47.70;;;;;;5013393;28;20057;-75
2024/01/14 11:34:51;;;;;;;4.88;3.60;;;5.90;58.90;;;;;;5040305;28;20067;-75
2024/01/14 11:37:33;;;;;;;4.65;3.10;;;6.00;67.10;;;;;;5046331;28;20058;-76
2024/01/14 11:40:07;;;;;;;4.63;3.58;;;6.00;74.20;;;;;;5046142;28;20103;-75
2024/01/14 11:42:37;;;;;;;;;;;6.00;50.20;;;;;;5045341;28;20053;-75
2024/01/14 11:45:33;;;;;;;5.20;3.55;;;6.00;59.60;;;;;;5047384;28;20235;-75
2024/01/14 11:48:05;;;;;;;5.03;3.15;;;6.00;52.90;;;;;;5044681;28;20052;-75
2024/01/14 11:50:32;;;;;;;4.07;2.75;;;6.10;50.00;;;;;;5027400;28;20382;-75
2024/01/14 11:53:00;;;;;;;5.03;3.33;;;6.20;62.80;;;;;;5044649;28;20063;-75
2024/01/14 11:55:31;;;;;;;4.15;2.92;;;6.30;60.90;;;;;;5028678;28;20040;-75
2024/01/14 11:58:13;;;;;;;5.18;3.53;;;6.30;66.90;;;;;;5011780;28;20103;-75
2024/01/14 12:00:41;;;;;;;4.78;3.60;;;6.30;48.70;;;;;;5028867;28;20127;-76
2024/01/14 12:03:15;;;;;;;4.45;3.42;;;6.30;65.30;;;;;;5027445;28;20122;-75
2024/01/14 12:05:43;;;;;;;7.00;5.03;;;6.20;58.60;;;;;;5023519;28;20530;-75
2024/01/14 12:08:11;;;;;;;6.43;5.03;;;6.10;57.90;;;;;;5026593;28;20308;-75
2024/01/14 12:10:38;;;;;;;6.07;4.30;;;6.10;81.60;;;;;;5044421;28;20424;-75
2024/01/14 12:13:09;;;;;;;5.05;3.90;;;6.10;74.40;;;;;;5019230;28;20437;-75
2024/01/14 12:15:36;;;;;;;4.72;3.40;;;6.20;67.70;;;;;;5038775;28;20144;-75
2024/01/14 12:18:05;;;;;;;4.50;3.30;;;6.30;74.70;;;;;;5038375;28;20049;-75
2024/01/14 12:20:34;;;;;;;4.72;3.30;;;6.30;58.20;;;;;;5015349;28;20136;-76
2024/01/14 12:23:04;;;;;;;4.68;3.40;;;6.30;64.50;;;;;;5017198;28;20112;-75
2024/01/14 12:25:34;;;;;;;4.38;3.05;;;6.30;71.00;;;;;;5038608;28;20076;-76
2024/01/14 12:28:00;;;;;;;5.05;3.88;;;6.30;63.40;;;;;;5034957;28;20049;-75
2024/01/14 12:30:34;;;;;;;6.18;4.97;;;6.40;61.00;;;;;;5021989;28;20056;-75
2024/01/14 12:33:08;;;;;;;5.53;3.45;;;6.40;59.30;;;;;;5035732;28;20122;-75
2024/01/14 12:35:36;;;;;;;5.00;3.67;;;6.40;73.00;;;;;;5014960;28;20114;-75
2024/01/14 12:38:06;;;;;;;5.20;3.55;;;6.50;74.80;;;;;;5018824;28;20057;-76
2024/01/14 12:40:33;;;;;;;5.32;3.90;;;6.60;67.90;;;;;;5037438;28;20053;-76
2024/01/14 12:43:00;;;;;;;4.70;3.55;;;6.70;68.40;;;;;;5018546;28;20080;-76
2024/01/14 12:45:27;;;;;;;4.10;3.00;;;6.80;71.00;;;;;;5021995;28;20159;-75
2024/01/14 12:48:00;;;;;;;4.32;3.10;;;6.80;76.40;;;;;;5019800;28;20128;-75
2024/01/14 12:50:28;;;;;;;4.30;2.88;;;7.00;78.70;;;;;;5037673;28;20076;-76
2024/01/14 12:53:04;;;;;;;4.00;2.70;;;7.10;80.50;;;;;;5019369;28;20056;-76
2024/01/14 12:55:31;;;;;;;4.18;2.80;;;7.10;91.40;;;;;;5019189;28;20045;-75
2024/01/14 12:58:00;;;;;;;3.75;3.15;;;7.10;98.60;;;;;;5038143;28;20449;-76
2024/01/14 13:00:28;;;;;;;4.47;2.97;;;7.20;99.90;;;;;;5021624;28;20120;-76
2024/01/14 13:02:55;;;;;;;3.55;2.63;;;7.20;91.80;;;;;;5021023;28;20053;-76
2024/01/14 13:05:22;;;;;;;5.25;3.20;;;7.10;91.00;;;;;;5020983;28;20049;-76